sensor_id;sensor_type;location;lat;lon;timestamp;P1;durP1;ratioP1;P2;durP2;ratioP2
19347;SDS011;9810;52.480;9.806;2022-12-24T00:01:01;6.83;;;4.23;;
19347;SDS011;9810;52.480;9.806;2022-12-24T00:03:28;5.50;;;3.57;;
19347;SDS011;9810;52.480;9.806;2022-12-24T00:05:56;5.33;;;4.07;;
19347;SDS011;9810;52.480;9.806;2022-12-24T00:08:23;5.33;;;3.90;;
19347;SDS011;9810;52.480;9.806;2022-12-24T00:10:53;5.90;;;3.83;;
19347;SDS011;9810;52.480;9.806;2022-12-24T00:13:20;5.50;;;3.97;;
19347;SDS011;9810;52.480;9.806;2022-12-24T00:15:47;5.43;;;3.57;;
19347;SDS011;9810;52.480;9.806;2022-12-24T00:18:15;6.00;;;3.70;;
19347;SDS011;9810;52.480;9.806;2022-12-24T00:20:44;4.30;;;3.37;;
19347;SDS011;9810;52.480;9.806;2022-12-24T00:23:13;3.67;;;3.13;;
19347;SDS011;9810;52.480;9.806;2022-12-24T00:25:40;3.10;;;2.50;;
19347;SDS011;9810;52.480;9.806;2022-12-24T00:28:09;3.20;;;2.57;;
19347;SDS011;9810;52.480;9.806;2022-12-24T00:30:36;5.53;;;2.80;;
19347;SDS011;9810;52.480;9.806;2022-12-24T00:33:03;3.37;;;2.43;;
19347;SDS011;9810;52.480;9.806;2022-12-24T00:35:32;3.87;;;2.80;;
19347;SDS011;9810;52.480;9.806;2022-12-24T00:37:59;3.27;;;2.53;;
19347;SDS011;9810;52.480;9.806;2022-12-24T00:40:27;3.50;;;3.17;;
19347;SDS011;9810;52.480;9.806;2022-12-24T00:42:55;3.27;;;2.60;;
19347;SDS011;9810;52.480;9.806;2022-12-24T00:45:24;3.23;;;2.93;;
19347;SDS011;9810;52.480;9.806;2022-12-24T00:47:52;4.17;;;3.00;;
19347;SDS011;9810;52.480;9.806;2022-12-24T00:50:19;3.73;;;3.03;;
19347;SDS011;9810;52.480;9.806;2022-12-24T00:52:47;4.60;;;3.40;;
19347;SDS011;9810;52.480;9.806;2022-12-24T00:55:14;4.63;;;3.43;;
19347;SDS011;9810;52.480;9.806;2022-12-24T00:57:41;5.00;;;3.33;;
19347;SDS011;9810;52.480;9.806;2022-12-24T01:00:09;6.13;;;3.87;;
19347;SDS011;9810;52.480;9.806;2022-12-24T01:02:39;4.00;;;3.10;;
19347;SDS011;9810;52.480;9.806;2022-12-24T01:05:06;4.83;;;3.30;;
19347;SDS011;9810;52.480;9.806;2022-12-24T01:07:34;6.97;;;4.00;;
19347;SDS011;9810;52.480;9.806;2022-12-24T01:10:02;3.33;;;3.00;;
19347;SDS011;9810;52.480;9.806;2022-12-24T01:12:31;4.57;;;3.50;;
19347;SDS011;9810;52.480;9.806;2022-12-24T01:14:59;8.33;;;3.27;;
19347;SDS011;9810;52.480;9.806;2022-12-24T01:17:26;3.53;;;2.87;;
19347;SDS011;9810;52.480;9.806;2022-12-24T01:19:55;8.27;;;3.97;;
19347;SDS011;9810;52.480;9.806;2022-12-24T01:22:23;3.10;;;2.73;;
19347;SDS011;9810;52.480;9.806;2022-12-24T01:24:50;5.20;;;3.53;;
19347;SDS011;9810;52.480;9.806;2022-12-24T01:27:17;3.87;;;3.33;;
19347;SDS011;9810;52.480;9.806;2022-12-24T01:29:45;4.07;;;3.67;;
19347;SDS011;9810;52.480;9.806;2022-12-24T01:32:12;4.15;;;3.50;;
19347;SDS011;9810;52.480;9.806;2022-12-24T01:34:39;4.40;;;3.10;;
19347;SDS011;9810;52.480;9.806;2022-12-24T01:37:08;3.93;;;3.03;;
19347;SDS011;9810;52.480;9.806;2022-12-24T01:39:36;3.97;;;3.00;;
19347;SDS011;9810;52.480;9.806;2022-12-24T01:42:10;5.30;;;2.80;;
19347;SDS011;9810;52.480;9.806;2022-12-24T01:48:04;3.77;;;2.57;;
19347;SDS011;9810;52.480;9.806;2022-12-24T01:50:37;3.87;;;2.70;;
19347;SDS011;9810;52.480;9.806;2022-12-24T01:53:06;4.47;;;3.17;;
19347;SDS011;9810;52.480;9.806;2022-12-24T01:55:36;4.07;;;2.83;;
19347;SDS011;9810;52.480;9.806;2022-12-24T01:58:03;5.43;;;3.17;;
19347;SDS011;9810;52.480;9.806;2022-12-24T02:00:33;3.47;;;2.77;;
19347;SDS011;9810;52.480;9.806;2022-12-24T02:03:00;3.40;;;2.93;;
19347;SDS011;9810;52.480;9.806;2022-12-24T02:05:28;4.53;;;3.20;;
19347;SDS011;9810;52.480;9.806;2022-12-24T02:08:00;3.53;;;1.60;;
19347;SDS011;9810;52.480;9.806;2022-12-24T02:10:30;4.17;;;2.70;;
19347;SDS011;9810;52.480;9.806;2022-12-24T02:12:58;3.23;;;2.80;;
19347;SDS011;9810;52.480;9.806;2022-12-24T02:15:30;3.40;;;2.53;;
19347;SDS011;9810;52.480;9.806;2022-12-24T02:18:03;3.40;;;2.40;;
19347;SDS011;9810;52.480;9.806;2022-12-24T02:20:42;3.10;;;2.53;;
19347;SDS011;9810;52.480;9.806;2022-12-24T02:23:31;3.07;;;2.60;;
19347;SDS011;9810;52.480;9.806;2022-12-24T02:26:26;3.73;;;2.50;;
19347;SDS011;9810;52.480;9.806;2022-12-24T02:29:13;3.53;;;2.47;;
19347;SDS011;9810;52.480;9.806;2022-12-24T02:31:56;3.83;;;2.87;;
19347;SDS011;9810;52.480;9.806;2022-12-24T02:34:28;4.10;;;3.00;;
19347;SDS011;9810;52.480;9.806;2022-12-24T02:36:59;3.40;;;2.83;;
19347;SDS011;9810;52.480;9.806;2022-12-24T02:39:32;4.17;;;2.63;;
19347;SDS011;9810;52.480;9.806;2022-12-24T02:42:05;4.20;;;3.27;;
19347;SDS011;9810;52.480;9.806;2022-12-24T02:44:37;3.53;;;3.00;;
19347;SDS011;9810;52.480;9.806;2022-12-24T02:47:09;4.43;;;3.10;;
19347;SDS011;9810;52.480;9.806;2022-12-24T02:49:38;4.17;;;3.20;;
19347;SDS011;9810;52.480;9.806;2022-12-24T02:52:13;4.40;;;2.83;;
19347;SDS011;9810;52.480;9.806;2022-12-24T02:54:54;4.37;;;3.17;;
19347;SDS011;9810;52.480;9.806;2022-12-24T02:57:24;5.13;;;2.87;;
19347;SDS011;9810;52.480;9.806;2022-12-24T03:00:02;6.13;;;3.00;;
19347;SDS011;9810;52.480;9.806;2022-12-24T03:02:35;3.90;;;3.17;;
19347;SDS011;9810;52.480;9.806;2022-12-24T03:05:17;8.20;;;2.83;;
19347;SDS011;9810;52.480;9.806;2022-12-24T03:07:53;4.27;;;2.40;;
19347;SDS011;9810;52.480;9.806;2022-12-24T03:10:28;4.10;;;2.77;;
19347;SDS011;9810;52.480;9.806;2022-12-24T03:13:01;5.77;;;2.87;;
19347;SDS011;9810;52.480;9.806;2022-12-24T03:15:33;3.80;;;3.10;;
19347;SDS011;9810;52.480;9.806;2022-12-24T03:18:04;6.47;;;3.17;;
19347;SDS011;9810;52.480;9.806;2022-12-24T03:20:36;5.87;;;3.63;;
19347;SDS011;9810;52.480;9.806;2022-12-24T03:23:06;5.37;;;3.37;;
19347;SDS011;9810;52.480;9.806;2022-12-24T03:25:33;5.10;;;3.50;;
19347;SDS011;9810;52.480;9.806;2022-12-24T03:28:04;4.70;;;3.27;;
19347;SDS011;9810;52.480;9.806;2022-12-24T03:30:33;4.30;;;3.30;;
19347;SDS011;9810;52.480;9.806;2022-12-24T03:33:00;5.67;;;4.00;;
19347;SDS011;9810;52.480;9.806;2022-12-24T03:35:30;6.03;;;3.70;;
19347;SDS011;9810;52.480;9.806;2022-12-24T03:37:57;4.27;;;3.43;;
19347;SDS011;9810;52.480;9.806;2022-12-24T03:40:24;4.80;;;3.40;;
19347;SDS011;9810;52.480;9.806;2022-12-24T03:42:51;5.57;;;3.90;;
19347;SDS011;9810;52.480;9.806;2022-12-24T03:45:19;5.37;;;3.77;;
19347;SDS011;9810;52.480;9.806;2022-12-24T03:47:46;5.70;;;3.40;;
19347;SDS011;9810;52.480;9.806;2022-12-24T03:50:13;4.40;;;3.50;;
19347;SDS011;9810;52.480;9.806;2022-12-24T03:52:43;6.87;;;4.30;;
19347;SDS011;9810;52.480;9.806;2022-12-24T03:55:09;6.07;;;4.03;;
19347;SDS011;9810;52.480;9.806;2022-12-24T03:57:37;7.23;;;4.23;;
19347;SDS011;9810;52.480;9.806;2022-12-24T04:00:05;7.37;;;4.50;;
19347;SDS011;9810;52.480;9.806;2022-12-24T04:02:34;7.60;;;4.50;;
19347;SDS011;9810;52.480;9.806;2022-12-24T04:05:01;6.40;;;4.17;;
19347;SDS011;9810;52.480;9.806;2022-12-24T04:07:29;8.07;;;4.67;;
19347;SDS011;9810;52.480;9.806;2022-12-24T04:09:59;7.70;;;5.00;;
19347;SDS011;9810;52.480;9.806;2022-12-24T04:12:26;10.03;;;4.80;;
19347;SDS011;9810;52.480;9.806;2022-12-24T04:14:54;6.97;;;4.17;;
19347;SDS011;9810;52.480;9.806;2022-12-24T04:17:21;10.03;;;5.37;;
19347;SDS011;9810;52.480;9.806;2022-12-24T04:19:48;9.20;;;4.80;;
19347;SDS011;9810;52.480;9.806;2022-12-24T04:22:16;9.77;;;5.70;;
19347;SDS011;9810;52.480;9.806;2022-12-24T04:24:43;7.63;;;4.80;;
19347;SDS011;9810;52.480;9.806;2022-12-24T04:27:13;7.03;;;4.77;;
19347;SDS011;9810;52.480;9.806;2022-12-24T04:29:41;7.10;;;4.33;;
19347;SDS011;9810;52.480;9.806;2022-12-24T04:32:08;4.97;;;3.30;;
19347;SDS011;9810;52.480;9.806;2022-12-24T04:34:36;6.20;;;3.80;;
19347;SDS011;9810;52.480;9.806;2022-12-24T04:37:03;6.83;;;3.33;;
19347;SDS011;9810;52.480;9.806;2022-12-24T04:39:30;8.50;;;2.87;;
19347;SDS011;9810;52.480;9.806;2022-12-24T04:41:58;8.50;;;2.30;;
19347;SDS011;9810;52.480;9.806;2022-12-24T04:44:27;4.77;;;2.40;;
19347;SDS011;9810;52.480;9.806;2022-12-24T04:46:54;2.97;;;2.27;;
19347;SDS011;9810;52.480;9.806;2022-12-24T04:49:21;5.83;;;1.90;;
19347;SDS011;9810;52.480;9.806;2022-12-24T04:51:49;6.27;;;2.17;;
19347;SDS011;9810;52.480;9.806;2022-12-24T04:54:16;9.70;;;2.87;;
19347;SDS011;9810;52.480;9.806;2022-12-24T04:56:43;7.37;;;2.33;;
19347;SDS011;9810;52.480;9.806;2022-12-24T04:59:10;5.03;;;2.50;;
19347;SDS011;9810;52.480;9.806;2022-12-24T05:01:39;6.23;;;2.60;;
19347;SDS011;9810;52.480;9.806;2022-12-24T05:04:07;9.20;;;3.00;;
19347;SDS011;9810;52.480;9.806;2022-12-24T05:06:35;5.90;;;3.00;;
19347;SDS011;9810;52.480;9.806;2022-12-24T05:09:03;7.43;;;3.00;;
19347;SDS011;9810;52.480;9.806;2022-12-24T05:11:30;10.73;;;2.70;;
19347;SDS011;9810;52.480;9.806;2022-12-24T05:13:57;16.00;;;5.40;;
19347;SDS011;9810;52.480;9.806;2022-12-24T05:16:25;16.83;;;4.10;;
19347;SDS011;9810;52.480;9.806;2022-12-24T05:18:54;15.30;;;4.47;;
19347;SDS011;9810;52.480;9.806;2022-12-24T05:21:22;19.53;;;4.00;;
19347;SDS011;9810;52.480;9.806;2022-12-24T05:23:50;23.77;;;5.27;;
19347;SDS011;9810;52.480;9.806;2022-12-24T05:26:36;19.80;;;4.50;;
19347;SDS011;9810;52.480;9.806;2022-12-24T05:29:05;19.03;;;4.53;;
19347;SDS011;9810;52.480;9.806;2022-12-24T05:31:36;17.00;;;4.40;;
19347;SDS011;9810;52.480;9.806;2022-12-24T05:34:06;22.40;;;3.33;;
19347;SDS011;9810;52.480;9.806;2022-12-24T05:36:33;18.80;;;3.20;;
19347;SDS011;9810;52.480;9.806;2022-12-24T05:39:01;20.37;;;3.70;;
19347;SDS011;9810;52.480;9.806;2022-12-24T05:41:28;13.10;;;2.90;;
19347;SDS011;9810;52.480;9.806;2022-12-24T05:43:56;17.23;;;4.23;;
19347;SDS011;9810;52.480;9.806;2022-12-24T05:46:24;15.73;;;3.33;;
19347;SDS011;9810;52.480;9.806;2022-12-24T05:48:52;16.50;;;3.03;;
19347;SDS011;9810;52.480;9.806;2022-12-24T05:51:21;22.33;;;4.00;;
19347;SDS011;9810;52.480;9.806;2022-12-24T05:53:49;15.33;;;2.90;;
19347;SDS011;9810;52.480;9.806;2022-12-24T05:56:18;18.20;;;3.90;;
19347;SDS011;9810;52.480;9.806;2022-12-24T05:58:46;12.03;;;3.00;;
19347;SDS011;9810;52.480;9.806;2022-12-24T06:01:14;19.17;;;4.63;;
19347;SDS011;9810;52.480;9.806;2022-12-24T06:03:42;10.57;;;2.90;;
19347;SDS011;9810;52.480;9.806;2022-12-24T06:06:10;11.77;;;2.70;;
19347;SDS011;9810;52.480;9.806;2022-12-24T06:08:40;14.53;;;3.40;;
19347;SDS011;9810;52.480;9.806;2022-12-24T06:11:09;13.60;;;2.77;;
19347;SDS011;9810;52.480;9.806;2022-12-24T06:13:38;21.27;;;4.23;;
19347;SDS011;9810;52.480;9.806;2022-12-24T06:16:10;12.07;;;4.20;;
19347;SDS011;9810;52.480;9.806;2022-12-24T06:18:39;18.97;;;3.33;;
19347;SDS011;9810;52.480;9.806;2022-12-24T06:21:06;14.93;;;3.37;;
19347;SDS011;9810;52.480;9.806;2022-12-24T06:23:35;22.67;;;4.93;;
19347;SDS011;9810;52.480;9.806;2022-12-24T06:26:06;19.93;;;3.70;;
19347;SDS011;9810;52.480;9.806;2022-12-24T06:28:35;18.27;;;3.90;;
19347;SDS011;9810;52.480;9.806;2022-12-24T06:31:03;14.43;;;4.17;;
19347;SDS011;9810;52.480;9.806;2022-12-24T06:33:32;19.93;;;3.40;;
19347;SDS011;9810;52.480;9.806;2022-12-24T06:35:59;24.10;;;3.63;;
19347;SDS011;9810;52.480;9.806;2022-12-24T06:38:28;22.23;;;3.60;;
19347;SDS011;9810;52.480;9.806;2022-12-24T06:40:56;18.77;;;3.07;;
19347;SDS011;9810;52.480;9.806;2022-12-24T06:43:25;14.30;;;3.83;;
19347;SDS011;9810;52.480;9.806;2022-12-24T06:45:52;19.47;;;3.37;;
19347;SDS011;9810;52.480;9.806;2022-12-24T06:48:20;18.80;;;3.40;;
19347;SDS011;9810;52.480;9.806;2022-12-24T06:50:47;22.83;;;5.00;;
19347;SDS011;9810;52.480;9.806;2022-12-24T06:53:14;18.97;;;4.13;;
19347;SDS011;9810;52.480;9.806;2022-12-24T06:55:42;35.43;;;5.10;;
19347;SDS011;9810;52.480;9.806;2022-12-24T06:58:09;21.07;;;4.43;;
19347;SDS011;9810;52.480;9.806;2022-12-24T07:00:38;17.73;;;3.97;;
19347;SDS011;9810;52.480;9.806;2022-12-24T07:03:06;25.00;;;5.13;;
19347;SDS011;9810;52.480;9.806;2022-12-24T07:05:33;20.60;;;4.27;;
19347;SDS011;9810;52.480;9.806;2022-12-24T07:08:01;21.63;;;4.87;;
19347;SDS011;9810;52.480;9.806;2022-12-24T07:10:29;19.03;;;4.23;;
19347;SDS011;9810;52.480;9.806;2022-12-24T07:12:56;15.13;;;3.40;;
19347;SDS011;9810;52.480;9.806;2022-12-24T07:15:23;22.37;;;5.23;;
19347;SDS011;9810;52.480;9.806;2022-12-24T07:17:52;23.77;;;3.93;;
19347;SDS011;9810;52.480;9.806;2022-12-24T07:20:20;20.93;;;3.17;;
19347;SDS011;9810;52.480;9.806;2022-12-24T07:22:47;22.97;;;4.10;;
19347;SDS011;9810;52.480;9.806;2022-12-24T07:25:14;23.20;;;4.80;;
19347;SDS011;9810;52.480;9.806;2022-12-24T07:27:42;18.83;;;3.60;;
19347;SDS011;9810;52.480;9.806;2022-12-24T07:30:09;24.53;;;3.53;;
19347;SDS011;9810;52.480;9.806;2022-12-24T07:32:37;24.00;;;4.10;;
19347;SDS011;9810;52.480;9.806;2022-12-24T07:35:07;19.33;;;3.60;;
19347;SDS011;9810;52.480;9.806;2022-12-24T07:37:35;15.50;;;3.20;;
19347;SDS011;9810;52.480;9.806;2022-12-24T07:40:02;22.40;;;3.47;;
19347;SDS011;9810;52.480;9.806;2022-12-24T07:42:33;22.07;;;3.67;;
19347;SDS011;9810;52.480;9.806;2022-12-24T07:45:01;18.67;;;3.23;;
19347;SDS011;9810;52.480;9.806;2022-12-24T07:47:28;22.63;;;4.13;;
19347;SDS011;9810;52.480;9.806;2022-12-24T07:49:55;20.57;;;2.93;;
19347;SDS011;9810;52.480;9.806;2022-12-24T07:52:25;19.47;;;3.17;;
19347;SDS011;9810;52.480;9.806;2022-12-24T07:54:52;19.97;;;3.20;;
19347;SDS011;9810;52.480;9.806;2022-12-24T07:57:19;16.93;;;4.27;;
19347;SDS011;9810;52.480;9.806;2022-12-24T07:59:47;21.10;;;3.17;;
19347;SDS011;9810;52.480;9.806;2022-12-24T08:02:14;21.30;;;3.23;;
19347;SDS011;9810;52.480;9.806;2022-12-24T08:04:41;17.93;;;2.37;;
19347;SDS011;9810;52.480;9.806;2022-12-24T08:07:08;22.20;;;3.77;;
19347;SDS011;9810;52.480;9.806;2022-12-24T08:09:37;22.47;;;4.00;;
19347;SDS011;9810;52.480;9.806;2022-12-24T08:12:05;18.53;;;3.60;;
19347;SDS011;9810;52.480;9.806;2022-12-24T08:14:32;22.47;;;5.10;;
19347;SDS011;9810;52.480;9.806;2022-12-24T08:17:00;18.50;;;3.00;;
19347;SDS011;9810;52.480;9.806;2022-12-24T08:19:27;23.13;;;4.03;;
19347;SDS011;9810;52.480;9.806;2022-12-24T08:21:55;25.13;;;5.13;;
19347;SDS011;9810;52.480;9.806;2022-12-24T08:24:22;22.53;;;3.27;;
19347;SDS011;9810;52.480;9.806;2022-12-24T08:26:53;20.17;;;3.30;;
19347;SDS011;9810;52.480;9.806;2022-12-24T08:29:20;17.20;;;3.23;;
19347;SDS011;9810;52.480;9.806;2022-12-24T08:31:47;13.93;;;3.30;;
19347;SDS011;9810;52.480;9.806;2022-12-24T08:34:15;23.17;;;3.20;;
19347;SDS011;9810;52.480;9.806;2022-12-24T08:36:42;17.33;;;3.33;;
19347;SDS011;9810;52.480;9.806;2022-12-24T08:39:09;17.83;;;3.20;;
19347;SDS011;9810;52.480;9.806;2022-12-24T08:41:37;22.17;;;3.30;;
19347;SDS011;9810;52.480;9.806;2022-12-24T08:44:06;21.43;;;3.40;;
19347;SDS011;9810;52.480;9.806;2022-12-24T08:46:33;23.63;;;3.70;;
19347;SDS011;9810;52.480;9.806;2022-12-24T08:49:01;26.30;;;3.53;;
19347;SDS011;9810;52.480;9.806;2022-12-24T08:51:30;21.13;;;5.23;;
19347;SDS011;9810;52.480;9.806;2022-12-24T08:54:00;18.47;;;3.77;;
19347;SDS011;9810;52.480;9.806;2022-12-24T08:56:28;24.60;;;4.10;;
19347;SDS011;9810;52.480;9.806;2022-12-24T08:58:55;27.23;;;3.70;;
19347;SDS011;9810;52.480;9.806;2022-12-24T09:01:24;20.53;;;4.23;;
19347;SDS011;9810;52.480;9.806;2022-12-24T09:03:51;18.37;;;3.47;;
19347;SDS011;9810;52.480;9.806;2022-12-24T09:06:18;19.70;;;3.63;;
19347;SDS011;9810;52.480;9.806;2022-12-24T09:08:46;14.40;;;3.33;;
19347;SDS011;9810;52.480;9.806;2022-12-24T09:11:14;18.43;;;3.33;;
19347;SDS011;9810;52.480;9.806;2022-12-24T09:13:44;19.90;;;3.10;;
19347;SDS011;9810;52.480;9.806;2022-12-24T09:16:12;17.57;;;3.63;;
19347;SDS011;9810;52.480;9.806;2022-12-24T09:18:41;20.10;;;3.10;;
19347;SDS011;9810;52.480;9.806;2022-12-24T09:21:09;18.77;;;3.90;;
19347;SDS011;9810;52.480;9.806;2022-12-24T09:23:38;17.50;;;3.07;;
19347;SDS011;9810;52.480;9.806;2022-12-24T09:26:06;17.17;;;4.00;;
19347;SDS011;9810;52.480;9.806;2022-12-24T09:28:34;20.20;;;4.10;;
19347;SDS011;9810;52.480;9.806;2022-12-24T09:31:03;21.07;;;3.47;;
19347;SDS011;9810;52.480;9.806;2022-12-24T09:33:31;18.40;;;4.00;;
19347;SDS011;9810;52.480;9.806;2022-12-24T09:36:02;18.60;;;4.60;;
19347;SDS011;9810;52.480;9.806;2022-12-24T09:38:29;20.07;;;4.10;;
19347;SDS011;9810;52.480;9.806;2022-12-24T09:40:58;13.83;;;3.60;;
19347;SDS011;9810;52.480;9.806;2022-12-24T09:43:27;15.40;;;3.50;;
19347;SDS011;9810;52.480;9.806;2022-12-24T09:46:01;15.67;;;3.50;;
19347;SDS011;9810;52.480;9.806;2022-12-24T09:48:35;13.50;;;3.80;;
19347;SDS011;9810;52.480;9.806;2022-12-24T09:51:08;25.50;;;4.63;;
19347;SDS011;9810;52.480;9.806;2022-12-24T09:53:38;19.13;;;4.70;;
19347;SDS011;9810;52.480;9.806;2022-12-24T09:56:11;21.57;;;5.20;;
19347;SDS011;9810;52.480;9.806;2022-12-24T09:58:47;17.80;;;4.33;;
19347;SDS011;9810;52.480;9.806;2022-12-24T10:01:16;18.13;;;4.00;;
19347;SDS011;9810;52.480;9.806;2022-12-24T10:03:45;23.70;;;5.73;;
19347;SDS011;9810;52.480;9.806;2022-12-24T10:06:15;20.73;;;5.30;;
19347;SDS011;9810;52.480;9.806;2022-12-24T10:08:49;24.27;;;6.57;;
19347;SDS011;9810;52.480;9.806;2022-12-24T10:11:26;23.23;;;5.37;;
19347;SDS011;9810;52.480;9.806;2022-12-24T10:14:03;21.30;;;4.80;;
19347;SDS011;9810;52.480;9.806;2022-12-24T10:16:50;18.53;;;4.93;;
19347;SDS011;9810;52.480;9.806;2022-12-24T10:19:24;22.43;;;5.03;;
19347;SDS011;9810;52.480;9.806;2022-12-24T10:22:05;25.53;;;4.77;;
19347;SDS011;9810;52.480;9.806;2022-12-24T10:24:43;21.67;;;4.97;;
19347;SDS011;9810;52.480;9.806;2022-12-24T10:27:14;17.03;;;4.47;;
19347;SDS011;9810;52.480;9.806;2022-12-24T10:29:45;21.53;;;4.80;;
19347;SDS011;9810;52.480;9.806;2022-12-24T10:32:16;23.23;;;5.10;;
19347;SDS011;9810;52.480;9.806;2022-12-24T10:34:50;18.67;;;5.50;;
19347;SDS011;9810;52.480;9.806;2022-12-24T10:37:25;23.80;;;5.53;;
19347;SDS011;9810;52.480;9.806;2022-12-24T10:39:54;16.53;;;4.60;;
19347;SDS011;9810;52.480;9.806;2022-12-24T10:42:24;19.50;;;5.90;;
19347;SDS011;9810;52.480;9.806;2022-12-24T10:45:09;22.37;;;5.10;;
19347;SDS011;9810;52.480;9.806;2022-12-24T10:47:42;24.77;;;5.23;;
19347;SDS011;9810;52.480;9.806;2022-12-24T10:50:12;17.93;;;4.57;;
19347;SDS011;9810;52.480;9.806;2022-12-24T10:52:45;21.73;;;5.83;;
19347;SDS011;9810;52.480;9.806;2022-12-24T10:55:20;29.13;;;5.97;;
19347;SDS011;9810;52.480;9.806;2022-12-24T10:57:55;17.27;;;5.63;;
19347;SDS011;9810;52.480;9.806;2022-12-24T11:00:26;25.93;;;6.23;;
19347;SDS011;9810;52.480;9.806;2022-12-24T11:03:05;21.97;;;4.83;;
19347;SDS011;9810;52.480;9.806;2022-12-24T11:05:45;23.53;;;6.47;;
19347;SDS011;9810;52.480;9.806;2022-12-24T11:08:28;38.80;;;5.93;;
19347;SDS011;9810;52.480;9.806;2022-12-24T11:10:56;24.87;;;5.77;;
19347;SDS011;9810;52.480;9.806;2022-12-24T11:13:25;20.20;;;5.33;;
19347;SDS011;9810;52.480;9.806;2022-12-24T11:15:58;12.97;;;4.80;;
19347;SDS011;9810;52.480;9.806;2022-12-24T11:18:28;16.83;;;3.77;;
19347;SDS011;9810;52.480;9.806;2022-12-24T11:20:58;19.27;;;4.93;;
19347;SDS011;9810;52.480;9.806;2022-12-24T11:23:28;22.87;;;5.33;;
19347;SDS011;9810;52.480;9.806;2022-12-24T11:25:55;18.23;;;4.80;;
19347;SDS011;9810;52.480;9.806;2022-12-24T11:28:24;16.17;;;4.40;;
19347;SDS011;9810;52.480;9.806;2022-12-24T11:31:00;15.30;;;4.90;;
19347;SDS011;9810;52.480;9.806;2022-12-24T11:33:29;20.53;;;5.07;;
19347;SDS011;9810;52.480;9.806;2022-12-24T11:36:00;18.03;;;5.10;;
19347;SDS011;9810;52.480;9.806;2022-12-24T11:38:32;17.50;;;5.70;;
19347;SDS011;9810;52.480;9.806;2022-12-24T11:41:02;15.60;;;4.43;;
19347;SDS011;9810;52.480;9.806;2022-12-24T11:43:36;20.97;;;5.67;;
19347;SDS011;9810;52.480;9.806;2022-12-24T11:46:35;15.30;;;4.10;;
19347;SDS011;9810;52.480;9.806;2022-12-24T11:49:12;21.90;;;5.00;;
19347;SDS011;9810;52.480;9.806;2022-12-24T11:54:49;12.50;;;4.07;;
19347;SDS011;9810;52.480;9.806;2022-12-24T11:57:30;13.53;;;3.40;;
19347;SDS011;9810;52.480;9.806;2022-12-24T12:00:08;12.57;;;3.60;;
19347;SDS011;9810;52.480;9.806;2022-12-24T12:02:37;16.63;;;5.20;;
19347;SDS011;9810;52.480;9.806;2022-12-24T12:05:08;21.90;;;6.43;;
19347;SDS011;9810;52.480;9.806;2022-12-24T12:07:39;13.87;;;3.47;;
19347;SDS011;9810;52.480;9.806;2022-12-24T12:10:14;18.30;;;5.13;;
19347;SDS011;9810;52.480;9.806;2022-12-24T12:12:44;19.27;;;4.27;;
19347;SDS011;9810;52.480;9.806;2022-12-24T12:15:14;22.53;;;5.77;;
19347;SDS011;9810;52.480;9.806;2022-12-24T12:17:46;14.23;;;4.60;;
19347;SDS011;9810;52.480;9.806;2022-12-24T12:20:18;11.67;;;4.37;;
19347;SDS011;9810;52.480;9.806;2022-12-24T12:22:50;17.53;;;7.70;;
19347;SDS011;9810;52.480;9.806;2022-12-24T12:25:26;26.13;;;4.63;;
19347;SDS011;9810;52.480;9.806;2022-12-24T12:27:59;15.10;;;4.10;;
19347;SDS011;9810;52.480;9.806;2022-12-24T12:30:33;17.13;;;4.07;;
19347;SDS011;9810;52.480;9.806;2022-12-24T12:33:04;11.47;;;5.77;;
19347;SDS011;9810;52.480;9.806;2022-12-24T12:35:43;13.83;;;4.57;;
19347;SDS011;9810;52.480;9.806;2022-12-24T12:38:12;12.63;;;4.17;;
19347;SDS011;9810;52.480;9.806;2022-12-24T12:40:57;18.00;;;3.90;;
19347;SDS011;9810;52.480;9.806;2022-12-24T12:43:36;12.07;;;3.60;;
19347;SDS011;9810;52.480;9.806;2022-12-24T12:46:25;14.07;;;4.22;;
19347;SDS011;9810;52.480;9.806;2022-12-24T12:49:05;16.23;;;5.63;;
19347;SDS011;9810;52.480;9.806;2022-12-24T12:51:41;12.50;;;3.77;;
19347;SDS011;9810;52.480;9.806;2022-12-24T12:54:20;14.97;;;4.70;;
19347;SDS011;9810;52.480;9.806;2022-12-24T12:56:59;17.13;;;3.67;;
19347;SDS011;9810;52.480;9.806;2022-12-24T12:59:32;10.03;;;4.20;;
19347;SDS011;9810;52.480;9.806;2022-12-24T13:02:07;15.80;;;3.43;;
19347;SDS011;9810;52.480;9.806;2022-12-24T13:04:56;12.80;;;3.60;;
19347;SDS011;9810;52.480;9.806;2022-12-24T13:10:50;9.83;;;3.50;;
19347;SDS011;9810;52.480;9.806;2022-12-24T13:13:39;11.00;;;4.43;;
19347;SDS011;9810;52.480;9.806;2022-12-24T13:19:43;11.00;;;3.90;;
19347;SDS011;9810;52.480;9.806;2022-12-24T13:22:31;6.87;;;3.73;;
19347;SDS011;9810;52.480;9.806;2022-12-24T13:24:58;12.20;;;3.27;;
19347;SDS011;9810;52.480;9.806;2022-12-24T13:27:26;12.10;;;3.50;;
19347;SDS011;9810;52.480;9.806;2022-12-24T13:29:57;14.27;;;4.47;;
19347;SDS011;9810;52.480;9.806;2022-12-24T13:32:39;7.00;;;3.10;;
19347;SDS011;9810;52.480;9.806;2022-12-24T13:44:01;18.20;;;2.50;;
19347;SDS011;9810;52.480;9.806;2022-12-24T13:46:49;6.57;;;2.07;;
19347;SDS011;9810;52.480;9.806;2022-12-24T13:49:21;3.93;;;2.00;;
19347;SDS011;9810;52.480;9.806;2022-12-24T13:52:04;2.93;;;1.33;;
19347;SDS011;9810;52.480;9.806;2022-12-24T13:54:48;3.93;;;1.30;;
19347;SDS011;9810;52.480;9.806;2022-12-24T13:57:30;5.00;;;1.43;;
19347;SDS011;9810;52.480;9.806;2022-12-24T14:00:03;4.27;;;1.07;;
19347;SDS011;9810;52.480;9.806;2022-12-24T14:02:36;5.80;;;1.50;;
19347;SDS011;9810;52.480;9.806;2022-12-24T14:05:15;5.37;;;1.10;;
19347;SDS011;9810;52.480;9.806;2022-12-24T14:07:45;1.60;;;0.90;;
19347;SDS011;9810;52.480;9.806;2022-12-24T14:10:18;3.13;;;0.90;;
19347;SDS011;9810;52.480;9.806;2022-12-24T14:12:48;5.67;;;1.33;;
19347;SDS011;9810;52.480;9.806;2022-12-24T14:18:36;7.67;;;1.00;;
19347;SDS011;9810;52.480;9.806;2022-12-24T14:21:06;2.77;;;0.90;;
19347;SDS011;9810;52.480;9.806;2022-12-24T14:23:43;3.05;;;1.05;;
19347;SDS011;9810;52.480;9.806;2022-12-24T14:26:18;3.03;;;1.63;;
19347;SDS011;9810;52.480;9.806;2022-12-24T14:28:47;5.93;;;1.17;;
19347;SDS011;9810;52.480;9.806;2022-12-24T14:31:20;6.33;;;1.33;;
19347;SDS011;9810;52.480;9.806;2022-12-24T14:33:49;4.57;;;1.20;;
19347;SDS011;9810;52.480;9.806;2022-12-24T14:36:18;5.77;;;1.60;;
19347;SDS011;9810;52.480;9.806;2022-12-24T14:38:47;5.67;;;1.23;;
19347;SDS011;9810;52.480;9.806;2022-12-24T14:41:21;5.60;;;2.07;;
19347;SDS011;9810;52.480;9.806;2022-12-24T14:43:57;5.37;;;1.57;;
19347;SDS011;9810;52.480;9.806;2022-12-24T14:46:34;9.60;;;1.90;;
19347;SDS011;9810;52.480;9.806;2022-12-24T14:49:12;7.43;;;1.97;;
19347;SDS011;9810;52.480;9.806;2022-12-24T14:51:52;10.37;;;1.73;;
19347;SDS011;9810;52.480;9.806;2022-12-24T14:54:30;15.40;;;3.40;;
19347;SDS011;9810;52.480;9.806;2022-12-24T14:57:09;5.67;;;1.73;;
19347;SDS011;9810;52.480;9.806;2022-12-24T14:59:45;12.20;;;3.40;;
19347;SDS011;9810;52.480;9.806;2022-12-24T15:05:09;8.13;;;2.50;;
19347;SDS011;9810;52.480;9.806;2022-12-24T15:07:40;3.87;;;1.60;;
19347;SDS011;9810;52.480;9.806;2022-12-24T15:12:57;4.10;;;2.37;;
19347;SDS011;9810;52.480;9.806;2022-12-24T15:15:29;7.23;;;2.10;;
19347;SDS011;9810;52.480;9.806;2022-12-24T15:17:56;14.00;;;2.77;;
19347;SDS011;9810;52.480;9.806;2022-12-24T15:20:27;10.90;;;2.87;;
19347;SDS011;9810;52.480;9.806;2022-12-24T15:22:56;7.40;;;2.33;;
19347;SDS011;9810;52.480;9.806;2022-12-24T15:25:25;7.67;;;4.07;;
19347;SDS011;9810;52.480;9.806;2022-12-24T15:27:54;14.40;;;3.13;;
19347;SDS011;9810;52.480;9.806;2022-12-24T15:30:23;10.88;;;3.92;;
19347;SDS011;9810;52.480;9.806;2022-12-24T15:32:52;11.67;;;4.27;;
19347;SDS011;9810;52.480;9.806;2022-12-24T15:35:33;14.20;;;3.83;;
19347;SDS011;9810;52.480;9.806;2022-12-24T15:38:16;13.57;;;3.40;;
19347;SDS011;9810;52.480;9.806;2022-12-24T15:40:50;12.20;;;3.37;;
19347;SDS011;9810;52.480;9.806;2022-12-24T15:43:18;9.47;;;3.87;;
19347;SDS011;9810;52.480;9.806;2022-12-24T15:45:45;9.90;;;3.57;;